sensor_id;sensor_type;location;lat;lon;timestamp;temperature;humidity
67893;DHT22;54688;52.376;16.744;2023-09-19T00:02:56;17;86.3
67893;DHT22;54688;52.376;16.744;2023-09-19T00:05:59;17;86.5
67893;DHT22;54688;52.376;16.744;2023-09-19T00:09:01;17;86.5
67893;DHT22;54688;52.376;16.744;2023-09-19T00:12:04;17;86.5
67893;DHT22;54688;52.376;16.744;2023-09-19T00:15:07;16.9;86.6
67893;DHT22;54688;52.376;16.744;2023-09-19T00:18:10;17;86.7
67893;DHT22;54688;52.376;16.744;2023-09-19T00:21:12;16.9;86.7
67893;DHT22;54688;52.376;16.744;2023-09-19T00:24:15;17;86.8
67893;DHT22;54688;52.376;16.744;2023-09-19T00:27:17;16.9;86.9
67893;DHT22;54688;52.376;16.744;2023-09-19T00:30:20;16.8;87.2
67893;DHT22;54688;52.376;16.744;2023-09-19T00:33:22;16.8;87.5
67893;DHT22;54688;52.376;16.744;2023-09-19T00:36:25;16.8;87.6
67893;DHT22;54688;52.376;16.744;2023-09-19T00:39:27;16.8;87.9
67893;DHT22;54688;52.376;16.744;2023-09-19T00:42:30;16.8;87.9
67893;DHT22;54688;52.376;16.744;2023-09-19T00:45:31;16.8;88.1
67893;DHT22;54688;52.376;16.744;2023-09-19T00:48:36;16.7;88.2
67893;DHT22;54688;52.376;16.744;2023-09-19T00:51:42;16.7;88.5
67893;DHT22;54688;52.376;16.744;2023-09-19T00:54:45;16.8;88.4
67893;DHT22;54688;52.376;16.744;2023-09-19T00:57:48;16.7;88.5
67893;DHT22;54688;52.376;16.744;2023-09-19T01:00:50;16.7;88.6
67893;DHT22;54688;52.376;16.744;2023-09-19T01:03:53;16.7;88.8
67893;DHT22;54688;52.376;16.744;2023-09-19T01:06:55;16.7;88.8
67893;DHT22;54688;52.376;16.744;2023-09-19T01:09:57;16.7;88.6
67893;DHT22;54688;52.376;16.744;2023-09-19T01:13:00;16.7;88.8
67893;DHT22;54688;52.376;16.744;2023-09-19T01:16:11;16.7;88.8
67893;DHT22;54688;52.376;16.744;2023-09-19T01:19:33;16.7;88.9
67893;DHT22;54688;52.376;16.744;2023-09-19T01:22:57;16.7;88.9
67893;DHT22;54688;52.376;16.744;2023-09-19T01:26:07;16.7;88.9
67893;DHT22;54688;52.376;16.744;2023-09-19T01:29:23;16.8;89
67893;DHT22;54688;52.376;16.744;2023-09-19T01:32:34;16.8;88.9
67893;DHT22;54688;52.376;16.744;2023-09-19T01:35:38;16.7;88.8
67893;DHT22;54688;52.376;16.744;2023-09-19T01:38:41;16.7;88.7
67893;DHT22;54688;52.376;16.744;2023-09-19T01:41:47;16.8;88.8
67893;DHT22;54688;52.376;16.744;2023-09-19T01:44:57;16.8;88.5
67893;DHT22;54688;52.376;16.744;2023-09-19T01:48:05;16.8;88.6
67893;DHT22;54688;52.376;16.744;2023-09-19T01:51:20;16.8;88.4
67893;DHT22;54688;52.376;16.744;2023-09-19T01:54:30;16.8;88.4
67893;DHT22;54688;52.376;16.744;2023-09-19T01:57:36;16.9;88.5
67893;DHT22;54688;52.376;16.744;2023-09-19T02:00:44;16.9;88.4
67893;DHT22;54688;52.376;16.744;2023-09-19T02:03:48;16.8;88.1
67893;DHT22;54688;52.376;16.744;2023-09-19T02:06:50;16.8;87.9
67893;DHT22;54688;52.376;16.744;2023-09-19T02:09:52;16.8;87.9
67893;DHT22;54688;52.376;16.744;2023-09-19T02:12:54;16.7;87.8
67893;DHT22;54688;52.376;16.744;2023-09-19T02:15:57;16.8;87.6
67893;DHT22;54688;52.376;16.744;2023-09-19T02:19:00;16.7;87.3
67893;DHT22;54688;52.376;16.744;2023-09-19T02:22:02;16.6;87.1
67893;DHT22;54688;52.376;16.744;2023-09-19T02:25:05;16.5;87
67893;DHT22;54688;52.376;16.744;2023-09-19T02:28:07;16.4;87
67893;DHT22;54688;52.376;16.744;2023-09-19T02:31:09;16.4;87.1
67893;DHT22;54688;52.376;16.744;2023-09-19T02:34:10;16.3;87.1
67893;DHT22;54688;52.376;16.744;2023-09-19T02:37:13;16.3;87.2
67893;DHT22;54688;52.376;16.744;2023-09-19T02:40:15;16.2;87.1
67893;DHT22;54688;52.376;16.744;2023-09-19T02:43:18;16.2;87
67893;DHT22;54688;52.376;16.744;2023-09-19T02:46:20;16.1;87
67893;DHT22;54688;52.376;16.744;2023-09-19T02:49:23;16.1;87.1
67893;DHT22;54688;52.376;16.744;2023-09-19T02:52:25;16;87.1
67893;DHT22;54688;52.376;16.744;2023-09-19T02:55:27;16;87.1
67893;DHT22;54688;52.376;16.744;2023-09-19T02:58:28;16;87.1
67893;DHT22;54688;52.376;16.744;2023-09-19T03:01:30;15.9;87
67893;DHT22;54688;52.376;16.744;2023-09-19T03:04:32;15.8;87
67893;DHT22;54688;52.376;16.744;2023-09-19T03:07:34;15.8;87.1
67893;DHT22;54688;52.376;16.744;2023-09-19T03:10:37;15.7;87.1
67893;DHT22;54688;52.376;16.744;2023-09-19T03:13:39;15.7;87.2
67893;DHT22;54688;52.376;16.744;2023-09-19T03:16:41;15.7;87.4
67893;DHT22;54688;52.376;16.744;2023-09-19T03:19:43;15.7;87.8
67893;DHT22;54688;52.376;16.744;2023-09-19T03:22:44;15.7;88.2
67893;DHT22;54688;52.376;16.744;2023-09-19T03:25:47;15.7;88.4
67893;DHT22;54688;52.376;16.744;2023-09-19T03:28:49;15.8;88.5
67893;DHT22;54688;52.376;16.744;2023-09-19T03:31:51;15.8;88.4
67893;DHT22;54688;52.376;16.744;2023-09-19T03:34:53;15.8;88.5
67893;DHT22;54688;52.376;16.744;2023-09-19T03:37:55;15.8;88.4
67893;DHT22;54688;52.376;16.744;2023-09-19T03:40:58;15.7;88.2
67893;DHT22;54688;52.376;16.744;2023-09-19T03:44:00;15.8;88.2
67893;DHT22;54688;52.376;16.744;2023-09-19T03:47:02;15.7;88.1
67893;DHT22;54688;52.376;16.744;2023-09-19T03:50:05;15.7;88.1
67893;DHT22;54688;52.376;16.744;2023-09-19T03:53:07;15.6;88.2
67893;DHT22;54688;52.376;16.744;2023-09-19T03:56:10;15.6;88.2
67893;DHT22;54688;52.376;16.744;2023-09-19T03:59:12;15.6;88.3
67893;DHT22;54688;52.376;16.744;2023-09-19T04:02:14;15.5;88.4
67893;DHT22;54688;52.376;16.744;2023-09-19T04:05:15;15.5;88.4
67893;DHT22;54688;52.376;16.744;2023-09-19T04:08:17;15.5;88.4
67893;DHT22;54688;52.376;16.744;2023-09-19T04:11:20;15.5;88.3
67893;DHT22;54688;52.376;16.744;2023-09-19T04:14:21;15.5;88.5
67893;DHT22;54688;52.376;16.744;2023-09-19T04:17:24;15.4;88.5
67893;DHT22;54688;52.376;16.744;2023-09-19T04:20:26;15.4;88.6
67893;DHT22;54688;52.376;16.744;2023-09-19T04:23:28;15.4;88.7
67893;DHT22;54688;52.376;16.744;2023-09-19T04:26:30;15.4;88.9
67893;DHT22;54688;52.376;16.744;2023-09-19T04:29:32;15.4;89
67893;DHT22;54688;52.376;16.744;2023-09-19T04:32:35;15.4;89.1
67893;DHT22;54688;52.376;16.744;2023-09-19T04:35:37;15.4;89.2
67893;DHT22;54688;52.376;16.744;2023-09-19T04:38:39;15.3;89.3
67893;DHT22;54688;52.376;16.744;2023-09-19T04:41:43;15.4;89.5
67893;DHT22;54688;52.376;16.744;2023-09-19T04:44:45;15.4;89.5
67893;DHT22;54688;52.376;16.744;2023-09-19T04:47:47;15.4;89.5
67893;DHT22;54688;52.376;16.744;2023-09-19T04:50:49;15.4;89.7
67893;DHT22;54688;52.376;16.744;2023-09-19T04:53:52;15.5;89
67893;DHT22;54688;52.376;16.744;2023-09-19T04:56:53;15.4;89.4
67893;DHT22;54688;52.376;16.744;2023-09-19T04:59:55;15.5;89.5
67893;DHT22;54688;52.376;16.744;2023-09-19T05:02:57;15.5;89.5
67893;DHT22;54688;52.376;16.744;2023-09-19T05:05:59;15.5;89.5
67893;DHT22;54688;52.376;16.744;2023-09-19T05:09:02;15.5;89.5
67893;DHT22;54688;52.376;16.744;2023-09-19T05:12:04;15.6;89.4
67893;DHT22;54688;52.376;16.744;2023-09-19T05:15:06;15.6;89.3
67893;DHT22;54688;52.376;16.744;2023-09-19T05:18:10;15.6;89.2
67893;DHT22;54688;52.376;16.744;2023-09-19T05:21:11;15.6;89.3
67893;DHT22;54688;52.376;16.744;2023-09-19T05:24:13;15.6;89.3
67893;DHT22;54688;52.376;16.744;2023-09-19T05:27:15;15.6;89.3
67893;DHT22;54688;52.376;16.744;2023-09-19T05:30:17;15.6;89.2
67893;DHT22;54688;52.376;16.744;2023-09-19T05:33:19;15.7;89.1
67893;DHT22;54688;52.376;16.744;2023-09-19T05:36:21;15.7;89
67893;DHT22;54688;52.376;16.744;2023-09-19T05:39:24;15.7;88.9
67893;DHT22;54688;52.376;16.744;2023-09-19T05:42:27;15.7;88.9
67893;DHT22;54688;52.376;16.744;2023-09-19T05:45:28;15.7;88.8
67893;DHT22;54688;52.376;16.744;2023-09-19T05:48:31;15.7;88.8
67893;DHT22;54688;52.376;16.744;2023-09-19T05:51:34;15.8;88.7
67893;DHT22;54688;52.376;16.744;2023-09-19T05:54:36;15.8;88.7
67893;DHT22;54688;52.376;16.744;2023-09-19T05:57:38;15.8;88.7
67893;DHT22;54688;52.376;16.744;2023-09-19T06:00:41;15.8;88.7
67893;DHT22;54688;52.376;16.744;2023-09-19T06:03:43;15.9;88.6
67893;DHT22;54688;52.376;16.744;2023-09-19T06:06:45;15.9;88.4
67893;DHT22;54688;52.376;16.744;2023-09-19T06:09:47;15.9;88.4
67893;DHT22;54688;52.376;16.744;2023-09-19T06:12:48;15.9;88.4
67893;DHT22;54688;52.376;16.744;2023-09-19T06:15:50;15.9;88.4
67893;DHT22;54688;52.376;16.744;2023-09-19T06:18:53;15.9;88.2
67893;DHT22;54688;52.376;16.744;2023-09-19T06:21:55;15.9;88
67893;DHT22;54688;52.376;16.744;2023-09-19T06:24:57;16;88
67893;DHT22;54688;52.376;16.744;2023-09-19T06:27:58;15.9;87.9
67893;DHT22;54688;52.376;16.744;2023-09-19T06:31:02;16;87.8
67893;DHT22;54688;52.376;16.744;2023-09-19T06:34:04;15.9;87.8
67893;DHT22;54688;52.376;16.744;2023-09-19T06:37:06;15.9;87.8
67893;DHT22;54688;52.376;16.744;2023-09-19T06:40:08;15.9;87.8
67893;DHT22;54688;52.376;16.744;2023-09-19T06:43:12;16;88
67893;DHT22;54688;52.376;16.744;2023-09-19T06:46:14;16;88
67893;DHT22;54688;52.376;16.744;2023-09-19T06:49:16;16;88.3
67893;DHT22;54688;52.376;16.744;2023-09-19T06:52:19;16.1;88.4
67893;DHT22;54688;52.376;16.744;2023-09-19T06:55:21;16.1;88
67893;DHT22;54688;52.376;16.744;2023-09-19T06:58:24;16.2;88.1
67893;DHT22;54688;52.376;16.744;2023-09-19T07:01:26;16.2;88.1
67893;DHT22;54688;52.376;16.744;2023-09-19T07:04:29;16.3;88.2
67893;DHT22;54688;52.376;16.744;2023-09-19T07:07:31;16.3;88
67893;DHT22;54688;52.376;16.744;2023-09-19T07:10:33;16.4;87.7
67893;DHT22;54688;52.376;16.744;2023-09-19T07:13:36;16.4;87.5
67893;DHT22;54688;52.376;16.744;2023-09-19T07:16:38;16.5;87.5
67893;DHT22;54688;52.376;16.744;2023-09-19T07:19:40;16.5;87.3
67893;DHT22;54688;52.376;16.744;2023-09-19T07:22:41;16.7;87.4
67893;DHT22;54688;52.376;16.744;2023-09-19T07:25:43;16.8;86.9
67893;DHT22;54688;52.376;16.744;2023-09-19T07:28:46;16.9;86.6
67893;DHT22;54688;52.376;16.744;2023-09-19T07:31:48;17;85.4
67893;DHT22;54688;52.376;16.744;2023-09-19T07:34:50;17.2;85.2
67893;DHT22;54688;52.376;16.744;2023-09-19T07:37:53;17.3;84.4
67893;DHT22;54688;52.376;16.744;2023-09-19T07:40:59;17.4;84.3
67893;DHT22;54688;52.376;16.744;2023-09-19T07:44:02;17.6;81.9
67893;DHT22;54688;52.376;16.744;2023-09-19T07:47:04;17.7;81.3
67893;DHT22;54688;52.376;16.744;2023-09-19T07:50:06;17.8;79.9
67893;DHT22;54688;52.376;16.744;2023-09-19T07:53:08;17.8;79.2
67893;DHT22;54688;52.376;16.744;2023-09-19T07:56:11;17.8;77.9
67893;DHT22;54688;52.376;16.744;2023-09-19T07:59:13;17.8;78.7
67893;DHT22;54688;52.376;16.744;2023-09-19T08:02:15;17.8;77.3
67893;DHT22;54688;52.376;16.744;2023-09-19T08:05:17;17.7;77.3
67893;DHT22;54688;52.376;16.744;2023-09-19T08:08:20;17.7;77.1
67893;DHT22;54688;52.376;16.744;2023-09-19T08:11:22;17.6;77.1
67893;DHT22;54688;52.376;16.744;2023-09-19T08:14:25;17.6;76.6
67893;DHT22;54688;52.376;16.744;2023-09-19T08:17:27;17.6;77
67893;DHT22;54688;52.376;16.744;2023-09-19T08:20:29;17.6;74.8
67893;DHT22;54688;52.376;16.744;2023-09-19T08:23:31;17.6;74.9
67893;DHT22;54688;52.376;16.744;2023-09-19T08:26:33;17.6;74.4
67893;DHT22;54688;52.376;16.744;2023-09-19T08:29:35;17.7;73.8
67893;DHT22;54688;52.376;16.744;2023-09-19T08:32:37;17.6;74.3
67893;DHT22;54688;52.376;16.744;2023-09-19T08:35:40;17.6;73.1
67893;DHT22;54688;52.376;16.744;2023-09-19T08:38:42;17.6;72.1
67893;DHT22;54688;52.376;16.744;2023-09-19T08:41:45;17.6;72.1
67893;DHT22;54688;52.376;16.744;2023-09-19T08:44:48;17.6;73.4
67893;DHT22;54688;52.376;16.744;2023-09-19T08:47:53;17.7;72.3
67893;DHT22;54688;52.376;16.744;2023-09-19T08:51:02;17.7;71.8
67893;DHT22;54688;52.376;16.744;2023-09-19T08:54:06;17.7;71.6
67893;DHT22;54688;52.376;16.744;2023-09-19T08:57:09;17.7;72.1
67893;DHT22;54688;52.376;16.744;2023-09-19T09:00:13;17.8;72.6
67893;DHT22;54688;52.376;16.744;2023-09-19T09:03:16;17.8;71.2
67893;DHT22;54688;52.376;16.744;2023-09-19T09:06:20;17.8;69.4
67893;DHT22;54688;52.376;16.744;2023-09-19T09:09:22;17.9;69.2
67893;DHT22;54688;52.376;16.744;2023-09-19T09:12:24;17.8;68.7
67893;DHT22;54688;52.376;16.744;2023-09-19T09:15:27;17.9;68.7
67893;DHT22;54688;52.376;16.744;2023-09-19T09:18:31;17.9;67.7
67893;DHT22;54688;52.376;16.744;2023-09-19T09:21:33;17.9;67.5
67893;DHT22;54688;52.376;16.744;2023-09-19T09:24:36;17.9;68.7
67893;DHT22;54688;52.376;16.744;2023-09-19T09:27:38;17.9;68.3
67893;DHT22;54688;52.376;16.744;2023-09-19T09:30:42;17.9;68.1
67893;DHT22;54688;52.376;16.744;2023-09-19T09:33:51;17.9;67.6
67893;DHT22;54688;52.376;16.744;2023-09-19T09:36:55;17.9;67
67893;DHT22;54688;52.376;16.744;2023-09-19T09:39:58;17.9;66
67893;DHT22;54688;52.376;16.744;2023-09-19T09:43:01;17.8;64.9
67893;DHT22;54688;52.376;16.744;2023-09-19T09:46:07;17.8;65.6
67893;DHT22;54688;52.376;16.744;2023-09-19T09:49:10;17.8;65.4
67893;DHT22;54688;52.376;16.744;2023-09-19T09:52:12;17.9;65.2
67893;DHT22;54688;52.376;16.744;2023-09-19T09:55:14;18;64.7
67893;DHT22;54688;52.376;16.744;2023-09-19T09:58:16;18.1;64.4
67893;DHT22;54688;52.376;16.744;2023-09-19T10:01:19;18.1;61.7
67893;DHT22;54688;52.376;16.744;2023-09-19T10:04:30;18.2;62.4
67893;DHT22;54688;52.376;16.744;2023-09-19T10:07:33;18.2;62.2
67893;DHT22;54688;52.376;16.744;2023-09-19T10:10:35;18.3;62.1
67893;DHT22;54688;52.376;16.744;2023-09-19T10:13:38;18.4;61.8
67893;DHT22;54688;52.376;16.744;2023-09-19T10:16:42;18.5;60.8
67893;DHT22;54688;52.376;16.744;2023-09-19T10:19:52;18.8;60.4
67893;DHT22;54688;52.376;16.744;2023-09-19T10:22:57;19;59.3
67893;DHT22;54688;52.376;16.744;2023-09-19T10:26:01;19.2;56.2
67893;DHT22;54688;52.376;16.744;2023-09-19T10:29:03;19.3;56.4
67893;DHT22;54688;52.376;16.744;2023-09-19T10:32:08;19.4;55.5
67893;DHT22;54688;52.376;16.744;2023-09-19T10:35:12;19.4;54
67893;DHT22;54688;52.376;16.744;2023-09-19T10:38:17;19.5;54.4
67893;DHT22;54688;52.376;16.744;2023-09-19T10:41:21;19.5;53.3
67893;DHT22;54688;52.376;16.744;2023-09-19T10:44:24;19.5;52.5
67893;DHT22;54688;52.376;16.744;2023-09-19T10:47:27;19.4;51.6
67893;DHT22;54688;52.376;16.744;2023-09-19T10:50:30;19.3;51.9
67893;DHT22;54688;52.376;16.744;2023-09-19T10:53:40;19.2;53.1
67893;DHT22;54688;52.376;16.744;2023-09-19T10:56:47;19.1;52.9
67893;DHT22;54688;52.376;16.744;2023-09-19T11:00:06;19;54.8
67893;DHT22;54688;52.376;16.744;2023-09-19T11:03:16;19;53.6
67893;DHT22;54688;52.376;16.744;2023-09-19T11:06:19;19;54
67893;DHT22;54688;52.376;16.744;2023-09-19T11:09:23;19;53
67893;DHT22;54688;52.376;16.744;2023-09-19T11:12:57;19.1;53.2
67893;DHT22;54688;52.376;16.744;2023-09-19T11:16:03;19.1;53.9
67893;DHT22;54688;52.376;16.744;2023-09-19T11:19:06;19.1;53.3
67893;DHT22;54688;52.376;16.744;2023-09-19T11:22:09;19.2;53.5
67893;DHT22;54688;52.376;16.744;2023-09-19T11:25:41;19.2;53.2
67893;DHT22;54688;52.376;16.744;2023-09-19T11:28:43;19.3;54.2
67893;DHT22;54688;52.376;16.744;2023-09-19T11:31:45;19.3;52
67893;DHT22;54688;52.376;16.744;2023-09-19T11:34:48;19.2;52.8
67893;DHT22;54688;52.376;16.744;2023-09-19T11:41:37;19.3;53.6
67893;DHT22;54688;52.376;16.744;2023-09-19T11:44:40;19.3;54.4
67893;DHT22;54688;52.376;16.744;2023-09-19T11:47:42;19.4;49.6
67893;DHT22;54688;52.376;16.744;2023-09-19T11:50:46;19.5;50.5
67893;DHT22;54688;52.376;16.744;2023-09-19T11:53:50;19.5;50.3
67893;DHT22;54688;52.376;16.744;2023-09-19T11:56:52;19.5;52.3
67893;DHT22;54688;52.376;16.744;2023-09-19T11:59:55;19.5;52.1
67893;DHT22;54688;52.376;16.744;2023-09-19T12:02:58;19.5;51.3
67893;DHT22;54688;52.376;16.744;2023-09-19T12:06:11;19.5;50.6
67893;DHT22;54688;52.376;16.744;2023-09-19T12:09:13;19.6;51.5
67893;DHT22;54688;52.376;16.744;2023-09-19T12:12:19;19.7;50.5
67893;DHT22;54688;52.376;16.744;2023-09-19T12:15:22;19.7;50
67893;DHT22;54688;52.376;16.744;2023-09-19T12:18:26;19.7;50.3
67893;DHT22;54688;52.376;16.744;2023-09-19T12:21:28;19.7;50.7
67893;DHT22;54688;52.376;16.744;2023-09-19T12:24:32;19.8;49.8
67893;DHT22;54688;52.376;16.744;2023-09-19T12:27:41;19.8;49.5
67893;DHT22;54688;52.376;16.744;2023-09-19T12:30:43;19.9;50.1
67893;DHT22;54688;52.376;16.744;2023-09-19T12:33:45;20;50
67893;DHT22;54688;52.376;16.744;2023-09-19T12:36:48;20;49.9
67893;DHT22;54688;52.376;16.744;2023-09-19T12:39:50;19.9;50
67893;DHT22;54688;52.376;16.744;2023-09-19T12:42:53;19.8;50.1
67893;DHT22;54688;52.376;16.744;2023-09-19T12:45:57;19.9;50.3
67893;DHT22;54688;52.376;16.744;2023-09-19T12:49:15;20.1;48.8
67893;DHT22;54688;52.376;16.744;2023-09-19T12:52:18;20.3;48.7
67893;DHT22;54688;52.376;16.744;2023-09-19T12:55:21;20.5;46.6
67893;DHT22;54688;52.376;16.744;2023-09-19T12:58:24;20.7;46
67893;DHT22;54688;52.376;16.744;2023-09-19T13:01:27;20.8;46.3
67893;DHT22;54688;52.376;16.744;2023-09-19T13:04:29;21;45.9
67893;DHT22;54688;52.376;16.744;2023-09-19T13:07:47;21.1;45.9
67893;DHT22;54688;52.376;16.744;2023-09-19T13:11:05;21.2;45.4
67893;DHT22;54688;52.376;16.744;2023-09-19T13:14:14;21.5;46.1
67893;DHT22;54688;52.376;16.744;2023-09-19T13:17:19;21.8;44.8
67893;DHT22;54688;52.376;16.744;2023-09-19T13:20:21;21.8;45.3
67893;DHT22;54688;52.376;16.744;2023-09-19T13:23:26;21.9;45.7
67893;DHT22;54688;52.376;16.744;2023-09-19T13:26:27;21.9;45.7
67893;DHT22;54688;52.376;16.744;2023-09-19T13:29:30;22;45.6
67893;DHT22;54688;52.376;16.744;2023-09-19T13:32:32;21.9;45.8
67893;DHT22;54688;52.376;16.744;2023-09-19T13:35:35;21.9;46
67893;DHT22;54688;52.376;16.744;2023-09-19T13:38:37;21.8;45.9
67893;DHT22;54688;52.376;16.744;2023-09-19T13:41:40;21.8;45.4
67893;DHT22;54688;52.376;16.744;2023-09-19T13:44:43;21.7;46.4
67893;DHT22;54688;52.376;16.744;2023-09-19T13:47:45;21.5;47.1
67893;DHT22;54688;52.376;16.744;2023-09-19T13:50:48;21.5;47.4
67893;DHT22;54688;52.376;16.744;2023-09-19T13:53:50;21.5;47.4
67893;DHT22;54688;52.376;16.744;2023-09-19T13:56:52;21.4;46.7
67893;DHT22;54688;52.376;16.744;2023-09-19T13:59:55;21.4;48
67893;DHT22;54688;52.376;16.744;2023-09-19T14:02:57;21.3;45.1
67893;DHT22;54688;52.376;16.744;2023-09-19T14:06:00;21.2;46.2
67893;DHT22;54688;52.376;16.744;2023-09-19T14:09:03;21.2;44.5
67893;DHT22;54688;52.376;16.744;2023-09-19T14:12:06;21.1;44.2
67893;DHT22;54688;52.376;16.744;2023-09-19T14:15:08;21;44.3
67893;DHT22;54688;52.376;16.744;2023-09-19T14:18:10;21;45.4
67893;DHT22;54688;52.376;16.744;2023-09-19T14:21:12;21;44.9
67893;DHT22;54688;52.376;16.744;2023-09-19T14:24:16;21.1;45.3
67893;DHT22;54688;52.376;16.744;2023-09-19T14:27:19;21.2;44.6
67893;DHT22;54688;52.376;16.744;2023-09-19T14:30:21;21.2;44.9
67893;DHT22;54688;52.376;16.744;2023-09-19T14:33:23;21.3;43.4
67893;DHT22;54688;52.376;16.744;2023-09-19T14:36:27;21.3;42.5
67893;DHT22;54688;52.376;16.744;2023-09-19T14:39:29;21.3;41.5
67893;DHT22;54688;52.376;16.744;2023-09-19T14:42:31;21.2;41
67893;DHT22;54688;52.376;16.744;2023-09-19T14:45:35;21.1;41.6
67893;DHT22;54688;52.376;16.744;2023-09-19T14:48:37;21;42.7
67893;DHT22;54688;52.376;16.744;2023-09-19T14:51:40;20.9;41.7
67893;DHT22;54688;52.376;16.744;2023-09-19T14:54:43;20.8;42.2
67893;DHT22;54688;52.376;16.744;2023-09-19T14:57:48;20.6;43.2
67893;DHT22;54688;52.376;16.744;2023-09-19T15:00:51;20.5;42.9
67893;DHT22;54688;52.376;16.744;2023-09-19T15:03:53;20.4;43.6
67893;DHT22;54688;52.376;16.744;2023-09-19T15:06:56;20.4;43.9
67893;DHT22;54688;52.376;16.744;2023-09-19T15:09:58;20.3;43.9
67893;DHT22;54688;52.376;16.744;2023-09-19T15:13:00;20.3;42.2
67893;DHT22;54688;52.376;16.744;2023-09-19T15:16:03;20.1;43
67893;DHT22;54688;52.376;16.744;2023-09-19T15:19:06;20.1;42.3
67893;DHT22;54688;52.376;16.744;2023-09-19T15:22:08;20.1;43.1
67893;DHT22;54688;52.376;16.744;2023-09-19T15:25:11;20;43.2
67893;DHT22;54688;52.376;16.744;2023-09-19T15:28:13;20;43.6
67893;DHT22;54688;52.376;16.744;2023-09-19T15:31:15;20;43.2
67893;DHT22;54688;52.376;16.744;2023-09-19T15:34:17;20;43.8
67893;DHT22;54688;52.376;16.744;2023-09-19T15:37:20;19.9;43.9
67893;DHT22;54688;52.376;16.744;2023-09-19T15:40:22;19.9;44.5
67893;DHT22;54688;52.376;16.744;2023-09-19T15:43:26;19.9;44.8
67893;DHT22;54688;52.376;16.744;2023-09-19T15:46:29;19.8;45.2
67893;DHT22;54688;52.376;16.744;2023-09-19T15:49:32;19.8;45.3
67893;DHT22;54688;52.376;16.744;2023-09-19T15:52:42;19.7;44.9
67893;DHT22;54688;52.376;16.744;2023-09-19T15:55:45;19.6;45.5
67893;DHT22;54688;52.376;16.744;2023-09-19T15:58:48;19.6;44.8
67893;DHT22;54688;52.376;16.744;2023-09-19T16:01:51;19.5;45.4
67893;DHT22;54688;52.376;16.744;2023-09-19T16:04:54;19.5;46.3
67893;DHT22;54688;52.376;16.744;2023-09-19T16:07:56;19.4;46.5
67893;DHT22;54688;52.376;16.744;2023-09-19T16:10:58;19.4;46.4
67893;DHT22;54688;52.376;16.744;2023-09-19T16:14:00;19.4;47.6
67893;DHT22;54688;52.376;16.744;2023-09-19T16:17:03;19.3;47.3
67893;DHT22;54688;52.376;16.744;2023-09-19T16:20:05;19.2;47.2
67893;DHT22;54688;52.376;16.744;2023-09-19T16:23:08;19.1;48.1
67893;DHT22;54688;52.376;16.744;2023-09-19T16:26:10;19;48.1
67893;DHT22;54688;52.376;16.744;2023-09-19T16:29:12;18.9;48.9
67893;DHT22;54688;52.376;16.744;2023-09-19T16:32:15;18.8;49.1
67893;DHT22;54688;52.376;16.744;2023-09-19T16:35:17;18.7;48.7
67893;DHT22;54688;52.376;16.744;2023-09-19T16:38:19;18.5;51.6
67893;DHT22;54688;52.376;16.744;2023-09-19T16:41:21;18.4;50.9
67893;DHT22;54688;52.376;16.744;2023-09-19T16:44:24;18.3;52.1
67893;DHT22;54688;52.376;16.744;2023-09-19T16:47:25;18.2;51.3
67893;DHT22;54688;52.376;16.744;2023-09-19T16:50:27;18.1;52.8
67893;DHT22;54688;52.376;16.744;2023-09-19T16:53:30;17.9;53.4
67893;DHT22;54688;52.376;16.744;2023-09-19T16:56:33;17.8;53.9
67893;DHT22;54688;52.376;16.744;2023-09-19T16:59:36;17.7;54.5
67893;DHT22;54688;52.376;16.744;2023-09-19T17:02:39;17.6;55
67893;DHT22;54688;52.376;16.744;2023-09-19T17:05:41;17.5;55.5
67893;DHT22;54688;52.376;16.744;2023-09-19T17:08:44;17.3;55.6
67893;DHT22;54688;52.376;16.744;2023-09-19T17:11:46;17.2;55.5
67893;DHT22;54688;52.376;16.744;2023-09-19T17:14:49;17.1;56.6
67893;DHT22;54688;52.376;16.744;2023-09-19T17:17:51;17;57.1
67893;DHT22;54688;52.376;16.744;2023-09-19T17:20:54;16.9;57.4
67893;DHT22;54688;52.376;16.744;2023-09-19T17:23:56;16.7;58.4
67893;DHT22;54688;52.376;16.744;2023-09-19T17:26:58;16.6;59.7
67893;DHT22;54688;52.376;16.744;2023-09-19T17:30:00;16.5;60.2
67893;DHT22;54688;52.376;16.744;2023-09-19T17:33:02;16.4;60.4
67893;DHT22;54688;52.376;16.744;2023-09-19T17:36:05;16.3;61.1
67893;DHT22;54688;52.376;16.744;2023-09-19T17:39:08;16.2;61.5
67893;DHT22;54688;52.376;16.744;2023-09-19T17:42:10;16.1;60.9
67893;DHT22;54688;52.376;16.744;2023-09-19T17:45:11;16;61.3
67893;DHT22;54688;52.376;16.744;2023-09-19T17:48:14;15.9;62.7
67893;DHT22;54688;52.376;16.744;2023-09-19T17:51:16;15.9;62.6
67893;DHT22;54688;52.376;16.744;2023-09-19T17:54:18;15.8;63
67893;DHT22;54688;52.376;16.744;2023-09-19T17:57:21;15.7;63.5
67893;DHT22;54688;52.376;16.744;2023-09-19T18:00:23;15.6;64
67893;DHT22;54688;52.376;16.744;2023-09-19T18:03:25;15.6;63.5
67893;DHT22;54688;52.376;16.744;2023-09-19T18:06:28;15.5;65.1
67893;DHT22;54688;52.376;16.744;2023-09-19T18:09:30;15.5;64.8
67893;DHT22;54688;52.376;16.744;2023-09-19T18:12:32;15.2;64.6
67893;DHT22;54688;52.376;16.744;2023-09-19T18:15:35;15.1;65.7
67893;DHT22;54688;52.376;16.744;2023-09-19T18:18:37;15;65.7
67893;DHT22;54688;52.376;16.744;2023-09-19T18:21:40;14.9;67.4
67893;DHT22;54688;52.376;16.744;2023-09-19T18:24:42;14.7;67
67893;DHT22;54688;52.376;16.744;2023-09-19T18:27:44;14.6;66.9
67893;DHT22;54688;52.376;16.744;2023-09-19T18:30:47;14.5;66.7
67893;DHT22;54688;52.376;16.744;2023-09-19T18:33:50;14.4;67.6
67893;DHT22;54688;52.376;16.744;2023-09-19T18:36:52;14.3;69.2
67893;DHT22;54688;52.376;16.744;2023-09-19T18:39:54;14.2;70
67893;DHT22;54688;52.376;16.744;2023-09-19T18:42:56;14.2;70.2
67893;DHT22;54688;52.376;16.744;2023-09-19T18:45:58;14.1;69.7
67893;DHT22;54688;52.376;16.744;2023-09-19T18:49:00;14;71
67893;DHT22;54688;52.376;16.744;2023-09-19T18:52:03;14;71.4
67893;DHT22;54688;52.376;16.744;2023-09-19T18:55:06;13.9;70.9
67893;DHT22;54688;52.376;16.744;2023-09-19T18:58:09;13.9;71
67893;DHT22;54688;52.376;16.744;2023-09-19T19:01:11;13.7;70.7
67893;DHT22;54688;52.376;16.744;2023-09-19T19:04:14;13.6;70.8
67893;DHT22;54688;52.376;16.744;2023-09-19T19:07:15;13.5;71.4
67893;DHT22;54688;52.376;16.744;2023-09-19T19:10:17;13.3;71.4
67893;DHT22;54688;52.376;16.744;2023-09-19T19:13:19;13.2;71.6
67893;DHT22;54688;52.376;16.744;2023-09-19T19:16:21;13.1;72.7
67893;DHT22;54688;52.376;16.744;2023-09-19T19:22:22;13;73.5
67893;DHT22;54688;52.376;16.744;2023-09-19T19:25:24;13;73.7
67893;DHT22;54688;52.376;16.744;2023-09-19T19:28:26;12.9;73.8
67893;DHT22;54688;52.376;16.744;2023-09-19T19:31:29;12.8;74.6
67893;DHT22;54688;52.376;16.744;2023-09-19T19:34:31;12.8;73
67893;DHT22;54688;52.376;16.744;2023-09-19T19:37:33;12.6;73.4
67893;DHT22;54688;52.376;16.744;2023-09-19T19:40:35;12.6;73.6
67893;DHT22;54688;52.376;16.744;2023-09-19T19:43:37;12.5;75
67893;DHT22;54688;52.376;16.744;2023-09-19T19:46:39;12.4;74.6
67893;DHT22;54688;52.376;16.744;2023-09-19T19:49:41;12.4;75.1
67893;DHT22;54688;52.376;16.744;2023-09-19T19:52:44;12.3;75